Hyderabad Weather



Hyderabad's Current Weather

Temprature 26.85o clear sky

clear sky

Rain: 0 %

Min Temprature26.85o
Max Temprature26.85o
Humidity76
Wind Speed7.6 m/h
Sun Rise06:03:20
Sun Set18:55:36
Current Time: 23-Aug-2019 05:46:43
Lat/Lon: 25.38, 68.38




Hyderabad's Geo Location



Hyderabad's Weather Forecast

Time Overall Temp Min Temp Max Temp Humidity Wind Speed Rain
23-Aug-2019 (Fri)
08:00:00 clear sky 27.630 27.627 27.630 74 7.45 m/h 0 %
11:00:00 clear sky 31.950 31.950 31.950 58 7.86 m/h 0 %
14:00:00 clear sky 36.030 36.030 36.031 40 7.07 m/h 0 %
17:00:00 clear sky 33.610 33.610 33.611 51 8.66 m/h 0 %
20:00:00 clear sky 29.350 29.350 29.350 67 8.5 m/h 0 %
23:00:00 clear sky 27.642 27.642 27.642 74 8.05 m/h 0 %
24-Aug-2019 (Sat)
02:00:00 clear sky 27.331 27.331 27.331 73 9.23 m/h 0 %
05:00:00 clear sky 26.455 26.455 26.455 77 9.09 m/h 0 %
08:00:00 clear sky 27.477 27.477 27.477 72 8.42 m/h 0 %
11:00:00 clear sky 31.269 31.269 31.269 59 9.3 m/h 0 %
14:00:00 few clouds 33.769 33.769 33.769 52 9.09 m/h 0 %
17:00:00 scattered clouds 32.623 32.623 32.623 55 9.06 m/h 0 %
20:00:00 clear sky 28.850 28.850 28.850 69 8.3 m/h 0 %
23:00:00 clear sky 27.669 27.669 27.669 72 8.21 m/h 0 %
25-Aug-2019 (Sun)
02:00:00 few clouds 27.131 27.131 27.131 73 8.17 m/h 0 %
05:00:00 few clouds 26.557 26.557 26.557 75 7.82 m/h 0 %
08:00:00 scattered clouds 27.714 27.714 27.714 71 7.85 m/h 0 %
11:00:00 scattered clouds 31.516 31.516 31.516 58 7.18 m/h 0 %
14:00:00 clear sky 33.750 33.750 33.750 49 6.73 m/h 0 %
17:00:00 clear sky 32.050 32.050 32.050 55 7.13 m/h 0 %
20:00:00 clear sky 29.481 29.481 29.481 64 6.48 m/h 0 %
23:00:00 clear sky 27.911 27.911 27.911 69 6.64 m/h 0 %
26-Aug-2019 (Mon)
02:00:00 scattered clouds 27.165 27.165 27.165 72 6.42 m/h 0 %
05:00:00 broken clouds 26.850 26.850 26.850 72 6.15 m/h 0 %
08:00:00 few clouds 27.667 27.667 27.667 68 6.22 m/h 0 %
11:00:00 few clouds 32.572 32.572 32.572 47 6.17 m/h 0 %
14:00:00 few clouds 36.384 36.384 36.384 33 5.87 m/h 0 %
17:00:00 scattered clouds 36.220 36.220 36.220 37 6.88 m/h 0 %
20:00:00 overcast clouds 31.772 31.772 31.772 55 6.99 m/h 0 %
23:00:00 overcast clouds 29.214 29.214 29.214 65 7.42 m/h 0 %
27-Aug-2019 (Tue)
02:00:00 broken clouds 28.016 28.016 28.016 67 8.62 m/h 0 %
05:00:00 broken clouds 28.150 28.150 28.150 63 6.05 m/h 0 %
08:00:00 scattered clouds 30.235 30.235 30.235 48 6.89 m/h 0 %
11:00:00 few clouds 35.836 35.836 35.836 34 8.7 m/h 0 %
14:00:00 clear sky 37.736 37.736 37.736 36 9.14 m/h 0 %
17:00:00 clear sky 35.465 35.465 35.465 44 10.42 m/h 0 %
20:00:00 broken clouds 31.250 31.250 31.250 58 7.76 m/h 0 %
23:00:00 broken clouds 29.650 29.650 29.650 65 9.6 m/h 0 %
28-Aug-2019 (Wed)
02:00:00 overcast clouds 28.757 28.757 28.757 69 9.25 m/h 0 %
05:00:00 overcast clouds 28.272 28.272 28.272 71 7.2 m/h 0 %


Hyderabad's Tourist Spots

Museums in Hyderabad

Famous Cities (61)